Time;durP1;ratioP1;P1;durP2;ratioP2;P2;SDS_P1;SDS_P2;PMS_P1;PMS_P2;Temp;Humidity;BMP_temperature;BMP_pressure;BME280_temperature;BME280_humidity;BME280_pressure;Samples;Min_cycle;Max_cycle;Signal;HPM_P1;HPM_P2
2023/04/28 00:01:45;;;;;;;14.63;9.75;;;;;;;7.79;70.35;101227.16;5113915;28;20023;-55
2023/04/28 00:04:10;;;;;;;16.45;10.43;;;;;;;7.72;70.01;101219.97;5077592;28;1031914;-53
2023/04/28 00:06:36;;;;;;;15.10;9.60;;;;;;;7.68;71.67;101218.97;5114399;28;20444;-54
2023/04/28 00:09:02;;;;;;;14.65;10.57;;;;;;;7.68;73.22;101223.22;5115003;28;20020;-53
2023/04/28 00:11:27;;;;;;;15.40;10.80;;;;;;;7.65;71.78;101210.25;5114892;28;20026;-53
2023/04/28 00:13:52;;;;;;;13.98;10.15;;;;;;;7.64;71.81;101206.78;5114481;28;20031;-54
2023/04/28 00:16:18;;;;;;;13.98;10.20;;;;;;;7.56;72.50;101205.56;5114447;28;20022;-54
2023/04/28 00:18:43;;;;;;;12.52;9.93;;;;;;;7.52;74.07;101206.22;5114817;28;20129;-54
2023/04/28 00:21:08;;;;;;;13.35;10.40;;;;;;;7.51;76.41;101207.03;5114390;28;20468;-54
2023/04/28 00:23:34;;;;;;;15.27;11.07;;;;;;;7.46;78.04;101198.22;5114297;28;20031;-54
2023/04/28 00:25:59;;;;;;;15.23;11.73;;;;;;;7.43;79.90;101203.22;5114792;28;20019;-54
2023/04/28 00:28:24;;;;;;;18.50;13.23;;;;;;;7.40;83.88;101211.66;5113894;28;20440;-55
2023/04/28 00:30:50;;;;;;;14.57;12.65;;;;;;;7.30;84.73;101204.31;5114396;28;20028;-54
2023/04/28 00:33:15;;;;;;;14.77;12.07;;;;;;;7.28;84.63;101190.53;5113308;28;20080;-54
2023/04/28 00:35:41;;;;;;;14.95;12.40;;;;;;;7.29;84.95;101184.59;5114110;28;20035;-55
2023/04/28 00:38:06;;;;;;;15.63;12.63;;;;;;;7.27;86.38;101175.94;5114095;28;20561;-56
2023/04/28 00:40:41;;;;;;;14.57;12.43;;;;;;;7.22;85.73;101170.63;5114270;28;20028;-54
2023/04/28 00:43:06;;;;;;;18.80;12.98;;;;;;;7.17;89.22;101172.94;5113828;28;20034;-55
2023/04/28 00:45:31;;;;;;;17.02;14.50;;;;;;;7.14;91.75;101167.69;5113728;28;20016;-54
2023/04/28 00:47:58;;;;;;;19.10;13.45;;;;;;;7.09;93.70;101169.13;5114449;28;20024;-54
2023/04/28 00:50:24;;;;;;;15.30;12.50;;;;;;;7.11;93.09;101167.50;5113376;28;20023;-55
2023/04/28 00:52:51;;;;;;;16.63;13.35;;;;;;;6.99;96.59;101172.06;5113926;28;20045;-55
2023/04/28 00:55:17;;;;;;;17.88;13.60;;;;;;;6.93;95.92;101167.47;5113725;28;20439;-55
2023/04/28 00:57:43;;;;;;;18.17;13.10;;;;;;;6.85;96.87;101159.41;5113592;28;20027;-54
2023/04/28 01:00:09;;;;;;;17.25;13.57;;;;;;;6.76;98.68;101148.72;5113817;28;20103;-53
2023/04/28 01:02:35;;;;;;;17.63;13.75;;;;;;;6.71;97.41;101162.97;5113404;28;20344;-55
2023/04/28 01:05:01;;;;;;;17.98;14.05;;;;;;;6.63;98.85;101154.91;5113670;28;20450;-55
2023/04/28 01:07:27;;;;;;;16.90;14.48;;;;;;;6.59;98.81;101147.88;5113498;28;20036;-56
2023/04/28 01:09:52;;;;;;;19.70;14.68;;;;;;;6.58;98.81;101144.44;5113499;28;20043;-54
2023/04/28 01:12:18;;;;;;;18.63;14.75;;;;;;;6.62;100.00;101142.91;5113372;28;20051;-55
2023/04/28 01:14:44;;;;;;;22.13;15.18;;;;;;;6.54;100.00;101144.19;5113771;28;20344;-54
2023/04/28 01:17:10;;;;;;;18.85;15.38;;;;;;;6.50;100.00;101135.47;5113078;28;20038;-54
2023/04/28 01:19:35;;;;;;;17.05;14.35;;;;;;;6.46;100.00;101138.69;5113344;28;20050;-54
2023/04/28 01:22:01;;;;;;;19.08;15.77;;;;;;;6.43;100.00;101125.75;5113727;28;20054;-55
2023/04/28 01:24:26;;;;;;;18.70;13.52;;;;;;;6.42;100.00;101121.41;5112837;28;20055;-54
2023/04/28 01:26:51;;;;;;;19.27;14.60;;;;;;;6.43;100.00;101100.16;5113373;28;20019;-54
2023/04/28 01:29:16;;;;;;;16.73;14.20;;;;;;;6.43;100.00;101100.16;5113007;28;20584;-54
2023/04/28 01:31:42;;;;;;;20.23;15.45;;;;;;;6.41;100.00;101094.06;5113106;28;20040;-53
2023/04/28 01:34:07;;;;;;;20.67;14.80;;;;;;;6.40;100.00;101098.31;5113433;28;20031;-53
2023/04/28 01:36:32;;;;;;;17.55;14.27;;;;;;;6.43;100.00;101097.59;5113266;28;20114;-53
2023/04/28 01:38:58;;;;;;;20.27;15.85;;;;;;;6.39;100.00;101106.78;5112817;28;20032;-53
2023/04/28 01:41:23;;;;;;;20.27;15.23;;;;;;;6.39;100.00;101101.66;5112781;28;20421;-54
2023/04/28 01:43:48;;;;;;;19.58;15.48;;;;;;;6.37;100.00;101095.56;5113137;28;20015;-54
2023/04/28 01:46:13;;;;;;;20.25;15.35;;;;;;;6.37;100.00;101093.00;5112653;28;20027;-54
2023/04/28 01:48:39;;;;;;;20.48;15.48;;;;;;;6.35;100.00;101097.19;5112946;28;20034;-54
2023/04/28 01:51:04;;;;;;;16.20;14.40;;;;;;;6.33;100.00;101091.09;5113379;28;20032;-53
2023/04/28 01:53:29;;;;;;;21.63;16.55;;;;;;;6.35;100.00;101083.50;5112335;28;20027;-54
2023/04/28 01:55:55;;;;;;;20.58;15.93;;;;;;;6.34;100.00;101087.75;5113168;28;20426;-53
2023/04/28 01:58:20;;;;;;;18.42;15.68;;;;;;;6.35;100.00;101083.50;5112718;28;20471;-54
2023/04/28 02:00:46;;;;;;;21.10;15.68;;;;;;;6.33;100.00;101080.00;5112463;28;20015;-54
2023/04/28 02:03:12;;;;;;;20.45;15.55;;;;;;;6.39;100.00;101076.06;5113064;28;20028;-52
2023/04/28 02:05:37;;;;;;;19.65;15.52;;;;;;;6.36;100.00;101075.03;5112592;28;20050;-53
2023/04/28 02:08:02;;;;;;;21.05;15.52;;;;;;;6.40;100.00;101084.59;5112219;28;20115;-54
2023/04/28 02:10:28;;;;;;;20.20;15.93;;;;;;;6.41;100.00;101084.69;5112835;28;20036;-54
2023/04/28 02:12:53;;;;;;;26.83;17.67;;;;;;;6.46;100.00;101082.38;5112784;28;20127;-54
2023/04/28 02:15:18;;;;;;;21.35;16.42;;;;;;;6.46;100.00;101079.81;5112112;28;20028;-53
2023/04/28 02:17:44;;;;;;;21.92;16.00;;;;;;;6.43;100.00;101074.53;5112963;28;20157;-53
2023/04/28 02:20:09;;;;;;;18.45;15.20;;;;;;;6.42;100.00;101076.19;5112311;28;20470;-54
2023/04/28 02:22:35;;;;;;;22.83;16.00;;;;;;;6.41;100.00;101061.63;5112535;28;20037;-56
2023/04/28 02:25:00;;;;;;;20.58;15.95;;;;;;;6.40;100.00;101059.00;5112896;28;20023;-53
2023/04/28 02:27:25;;;;;;;21.38;16.42;;;;;;;6.38;100.00;101047.84;5112009;28;20023;-54
2023/04/28 02:29:51;;;;;;;22.17;16.58;;;;;;;6.36;100.00;101040.03;5112552;28;20064;-55
2023/04/28 02:32:16;;;;;;;25.83;18.15;;;;;;;6.35;100.00;101030.63;5112536;28;20023;-53
2023/04/28 02:34:42;;;;;;;22.98;17.10;;;;;;;6.37;100.00;101033.25;5112225;28;20120;-53
2023/04/28 02:37:07;;;;;;;23.13;17.60;;;;;;;6.35;100.00;101015.28;5112731;28;20023;-54
2023/04/28 02:39:32;;;;;;;20.85;17.35;;;;;;;6.32;100.00;101010.00;5112728;28;20019;-54
2023/04/28 02:41:58;;;;;;;23.52;18.00;;;;;;;6.33;100.00;101008.31;5112335;28;20026;-54
2023/04/28 02:44:23;;;;;;;21.73;17.08;;;;;;;6.34;100.00;101010.06;5112050;28;20039;-54
2023/04/28 02:46:49;;;;;;;20.33;17.55;;;;;;;6.32;100.00;100997.19;5112650;28;20103;-54
2023/04/28 02:49:14;;;;;;;24.38;18.55;;;;;;;6.32;100.00;100998.88;5112298;28;20489;-54
2023/04/28 02:51:40;;;;;;;23.73;18.05;;;;;;;6.33;100.00;100991.28;5112141;28;20530;-52
2023/04/28 02:54:05;;;;;;;23.45;17.77;;;;;;;6.36;100.00;100993.09;5112576;28;20447;-53
2023/04/28 02:56:30;;;;;;;22.98;17.42;;;;;;;6.36;100.00;100982.88;5113837;28;20427;-54
2023/04/28 02:58:56;;;;;;;20.13;16.85;;;;;;;6.34;100.00;100987.00;5116138;28;20024;-52
2023/04/28 03:01:21;;;;;;;21.63;17.85;;;;;;;6.36;100.00;100978.59;5116246;28;20023;-53
2023/04/28 03:03:47;;;;;;;25.40;18.15;;;;;;;6.39;100.00;100983.00;5115653;28;20502;-54
2023/04/28 03:06:12;;;;;;;23.70;19.20;;;;;;;6.39;100.00;100988.13;5116150;28;20114;-53
2023/04/28 03:08:37;;;;;;;24.63;18.25;;;;;;;6.40;100.00;100995.00;5115871;28;20024;-55
2023/04/28 03:11:03;;;;;;;27.77;20.05;;;;;;;6.37;100.00;100984.63;5115627;28;20035;-53
2023/04/28 03:13:29;;;;;;;26.60;19.60;;;;;;;6.39;100.00;100985.56;5115598;28;20114;-53
2023/04/28 03:15:54;;;;;;;22.92;19.60;;;;;;;6.41;100.00;100999.31;5116320;28;20076;-54
2023/04/28 03:18:21;;;;;;;25.65;18.77;;;;;;;6.44;100.00;100981.53;5115062;28;20058;-53
2023/04/28 03:20:47;;;;;;;21.80;19.10;;;;;;;6.49;100.00;100972.41;5116121;28;20095;-54
2023/04/28 03:23:12;;;;;;;27.95;20.15;;;;;;;6.48;100.00;100975.78;5116051;28;20024;-54
2023/04/28 03:25:37;;;;;;;24.70;19.33;;;;;;;6.50;100.00;100979.28;5114881;28;20052;-54
2023/04/28 03:28:02;;;;;;;24.05;19.15;;;;;;;6.55;100.00;100979.53;5115801;28;20023;-54
2023/04/28 03:30:28;;;;;;;26.40;19.73;;;;;;;6.55;100.00;100985.50;5114838;28;20024;-54
2023/04/28 03:32:53;;;;;;;25.30;19.88;;;;;;;6.58;100.00;100985.69;5115617;28;20027;-55
2023/04/28 03:35:18;;;;;;;25.05;19.95;;;;;;;6.62;100.00;100988.38;5115360;28;20030;-54
2023/04/28 03:37:44;;;;;;;26.50;20.50;;;;;;;6.64;100.00;100986.78;5115215;28;20077;-54
2023/04/28 03:40:09;;;;;;;25.35;20.65;;;;;;;6.63;100.00;100983.31;5115513;28;20030;-53
2023/04/28 03:42:35;;;;;;;25.90;19.88;;;;;;;6.66;100.00;100977.47;5115418;28;20430;-54
2023/04/28 03:45:00;;;;;;;23.85;20.05;;;;;;;6.65;100.00;100971.47;5115172;28;20427;-54
2023/04/28 03:47:25;;;;;;;25.83;20.45;;;;;;;6.65;100.00;100974.03;5115171;28;20019;-55
2023/04/28 03:49:51;;;;;;;27.70;20.80;;;;;;;6.66;100.00;100978.34;5115469;28;20034;-53
2023/04/28 03:52:16;;;;;;;26.27;20.40;;;;;;;6.68;100.00;100976.72;5114441;28;20023;-54
2023/04/28 03:54:41;;;;;;;24.42;21.00;;;;;;;6.68;100.00;100971.59;5115096;28;20024;-55
2023/04/28 03:57:07;;;;;;;28.13;21.88;;;;;;;6.69;100.00;100972.50;5115234;28;20487;-53
2023/04/28 03:59:32;;;;;;;26.38;20.33;;;;;;;6.69;100.00;100965.69;5114505;28;20020;-54
2023/04/28 04:01:57;;;;;;;25.48;21.55;;;;;;;6.75;100.00;100965.09;5115160;28;20080;-55
2023/04/28 04:04:22;;;;;;;28.25;21.55;;;;;;;6.73;100.00;100959.03;5114778;28;20051;-54
2023/04/28 04:06:48;;;;;;;29.70;23.08;;;;;;;6.74;100.00;100958.22;5114019;28;20525;-54
2023/04/28 04:09:14;;;;;;;27.55;21.98;;;;;;;6.80;100.00;100950.81;5114155;28;20116;-53
2023/04/28 04:11:39;;;;;;;29.23;22.83;;;;;;;6.79;100.00;100945.63;5114742;28;20016;-54
2023/04/28 04:14:05;;;;;;;29.23;22.27;;;;;;;6.81;100.00;100947.44;5114110;28;20031;-54
2023/04/28 04:16:30;;;;;;;27.92;22.50;;;;;;;6.85;100.00;100949.34;5114558;28;20479;-52
2023/04/28 04:18:56;;;;;;;27.05;21.83;;;;;;;6.88;100.00;100943.47;5114972;28;20378;-54
2023/04/28 04:21:21;;;;;;;30.40;23.08;;;;;;;6.88;100.00;100943.47;5113774;28;20172;-53
2023/04/28 04:23:46;;;;;;;29.05;24.00;;;;;;;6.89;100.00;100935.88;5114819;28;20087;-55
2023/04/28 04:26:12;;;;;;;33.05;23.75;;;;;;;6.89;100.00;100943.56;5114638;28;20481;-53
2023/04/28 04:28:37;;;;;;;29.33;23.05;;;;;;;6.89;100.00;100945.22;5113497;28;20026;-53
2023/04/28 04:31:02;;;;;;;30.52;23.17;;;;;;;6.91;100.00;100949.63;5114990;28;20024;-54
2023/04/28 04:33:28;;;;;;;30.17;24.27;;;;;;;6.95;100.00;100952.34;5114426;28;20356;-54
2023/04/28 04:35:53;;;;;;;28.77;23.30;;;;;;;6.97;100.00;100951.59;5114101;28;20024;-54
2023/04/28 04:38:19;;;;;;;28.75;23.27;;;;;;;7.01;100.00;100950.03;5114253;28;20504;-55
2023/04/28 04:40:44;;;;;;;31.20;24.02;;;;;;;7.01;100.00;100944.91;5113812;28;20023;-54
2023/04/28 04:43:09;;;;;;;31.40;24.42;;;;;;;7.03;100.00;100938.19;5114069;28;20550;-54
2023/04/28 04:45:34;;;;;;;32.53;25.63;;;;;;;7.04;100.00;100930.56;5114164;28;20034;-54
2023/04/28 04:48:00;;;;;;;31.05;24.70;;;;;;;7.06;100.00;100925.50;5113680;28;20498;-54
2023/04/28 04:50:25;;;;;;;30.35;24.63;;;;;;;7.08;100.00;100926.47;5113806;28;20024;-54
2023/04/28 04:52:51;;;;;;;30.45;24.90;;;;;;;7.11;100.00;100924.03;5114296;28;20425;-54
2023/04/28 04:55:16;;;;;;;33.67;25.20;;;;;;;7.16;100.00;100919.97;5113356;28;20023;-54
2023/04/28 04:57:41;;;;;;;29.98;25.38;;;;;;;7.19;100.00;100925.25;5113774;28;20056;-54
2023/04/28 05:00:08;;;;;;;37.72;26.60;;;;;;;7.24;100.00;100928.91;5114248;28;20039;-54
2023/04/28 05:02:33;;;;;;;36.95;25.50;;;;;;;7.31;100.00;100919.78;5113328;28;20047;-54
2023/04/28 05:04:59;;;;;;;30.88;25.38;;;;;;;7.33;100.00;100922.41;5113535;28;20063;-54
2023/04/28 05:07:25;;;;;;;31.05;25.67;;;;;;;7.38;100.00;100919.22;5113607;28;20463;-54
2023/04/28 05:09:50;;;;;;;30.77;25.15;;;;;;;7.44;100.00;100921.19;5113287;28;20019;-54
2023/04/28 05:12:16;;;;;;;32.63;25.67;;;;;;;7.49;100.00;100924.84;5113127;28;20032;-55
2023/04/28 05:14:41;;;;;;;34.65;25.40;;;;;;;7.55;100.00;100913.97;5113958;28;20019;-53
2023/04/28 05:17:06;;;;;;;34.42;25.90;;;;;;;7.61;100.00;100915.94;5113077;28;20371;-54
2023/04/28 05:19:31;;;;;;;32.08;24.92;;;;;;;7.70;100.00;100906.06;5112999;28;20057;-53
2023/04/28 05:21:57;;;;;;;35.15;26.50;;;;;;;7.75;100.00;100896.88;5113725;28;20024;-54
2023/04/28 05:24:22;;;;;;;31.33;24.85;;;;;;;7.75;100.00;100892.59;5112708;28;20471;-54
2023/04/28 05:26:50;;;;;;;33.38;25.33;;;;;;;7.81;100.00;100897.13;5113361;28;20047;-54
2023/04/28 05:29:16;;;;;;;33.40;26.50;;;;;;;7.84;100.00;100902.38;5113377;28;20027;-55
2023/04/28 05:31:41;;;;;;;32.80;26.85;;;;;;;7.86;100.00;100895.63;5112864;28;20031;-54
2023/04/28 05:34:06;;;;;;;33.78;26.90;;;;;;;7.91;100.00;100899.25;5113376;28;20099;-54
2023/04/28 05:36:32;;;;;;;31.65;26.42;;;;;;;7.97;100.00;100897.75;5113125;28;20035;-53
2023/04/28 05:38:57;;;;;;;34.58;26.95;;;;;;;7.97;100.00;100902.88;5112565;28;20027;-54
2023/04/28 05:41:23;;;;;;;33.65;25.45;;;;;;;8.00;100.00;100903.00;5112995;28;20019;-54
2023/04/28 05:43:50;;;;;;;32.80;26.02;;;;;;;8.04;100.00;100899.75;5113513;28;20016;-54
2023/04/28 05:46:16;;;;;;;33.15;27.20;;;;;;;8.06;100.00;100899.00;5112570;28;20051;-54
2023/04/28 05:48:41;;;;;;;33.10;25.92;;;;;;;8.14;100.00;100896.72;5113442;28;20046;-54
2023/04/28 05:51:06;;;;;;;32.95;26.95;;;;;;;8.22;100.00;100900.50;5112804;28;20368;-54
2023/04/28 05:53:31;;;;;;;31.10;25.70;;;;;;;8.33;100.00;100894.91;5112795;28;20046;-51
2023/04/28 05:55:57;;;;;;;33.25;26.23;;;;;;;8.40;100.00;100896.88;5113130;28;20090;-53
2023/04/28 05:58:22;;;;;;;36.03;25.60;;;;;;;8.57;100.00;100905.28;5112137;28;20030;-54
2023/04/28 06:00:47;;;;;;;32.28;25.42;;;;;;;8.62;100.00;100902.91;5112980;28;20047;-54
2023/04/28 06:03:14;;;;;;;33.70;25.60;;;;;;;8.65;100.00;100897.88;5113323;28;20019;-54
2023/04/28 06:05:39;;;;;;;33.83;25.15;;;;;;;8.68;100.00;100904.00;5111966;28;20433;-53
2023/04/28 06:08:06;;;;;;;32.60;25.70;;;;;;;8.74;100.00;100890.53;5112827;28;20537;-54
2023/04/28 06:10:31;;;;;;;32.03;26.67;;;;;;;8.77;100.00;100890.63;5112689;28;20387;-53
2023/04/28 06:12:57;;;;;;;32.20;24.48;;;;;;;8.84;100.00;100892.59;5112267;28;20522;-53
2023/04/28 06:15:22;;;;;;;32.78;24.35;;;;;;;8.90;100.00;100895.41;5112706;28;20035;-53
2023/04/28 06:17:47;;;;;;;31.92;25.13;;;;;;;9.00;100.00;100903.44;5113144;28;20020;-55
2023/04/28 06:20:13;;;;;;;33.17;25.20;;;;;;;9.05;100.00;100894.22;5112488;28;20483;-54
2023/04/28 06:22:39;;;;;;;32.72;24.67;;;;;;;9.14;100.00;100899.72;5112477;28;20028;-54
2023/04/28 06:25:05;;;;;;;30.90;25.08;;;;;;;9.16;100.00;100900.63;5112862;28;20023;-53
2023/04/28 06:27:31;;;;;;;30.45;24.30;;;;;;;9.17;100.00;100896.38;5111984;28;20023;-54
2023/04/28 06:29:57;;;;;;;33.47;26.15;;;;;;;9.19;100.00;100887.91;5113118;28;20030;-54
2023/04/28 06:32:22;;;;;;;33.53;26.17;;;;;;;9.19;100.00;100890.47;5116161;28;20433;-53
2023/04/28 06:34:47;;;;;;;33.35;26.52;;;;;;;9.22;100.00;100892.28;5115997;28;20074;-54
2023/04/28 06:37:13;;;;;;;33.95;26.30;;;;;;;9.21;100.00;100888.81;5116792;28;20467;-54
2023/04/28 06:39:38;;;;;;;36.70;28.50;;;;;;;9.23;100.00;100897.47;5116382;28;20028;-54
2023/04/28 06:42:03;;;;;;;42.53;33.60;;;;;;;9.26;100.00;100900.94;5115879;28;20031;-54
2023/04/28 06:44:29;;;;;;;64.68;48.60;;;;;;;9.25;100.00;100901.78;5116638;28;20020;-54
2023/04/28 06:46:54;;;;;;;69.15;50.85;;;;;;;9.26;100.00;100912.13;5116710;28;20051;-54
2023/04/28 06:49:19;;;;;;;35.70;28.13;;;;;;;9.25;100.00;100899.22;5115526;28;20357;-54
2023/04/28 06:51:45;;;;;;;32.92;25.92;;;;;;;9.26;100.00;100885.53;5116515;28;20169;-53
2023/04/28 06:54:10;;;;;;;35.35;27.10;;;;;;;9.30;100.00;100887.41;5116279;28;20019;-54
2023/04/28 06:56:35;;;;;;;33.38;27.13;;;;;;;9.31;100.00;100881.41;5115745;28;20024;-52
2023/04/28 06:59:02;;;;;;;52.63;42.45;;;;;;;9.34;100.00;100884.13;5116573;28;20585;-54
2023/04/28 07:01:27;;;;;;;35.50;28.40;;;;;;;9.36;100.00;100882.44;5115615;28;20383;-53
2023/04/28 07:03:53;;;;;;;36.20;27.88;;;;;;;9.36;100.00;100882.44;5115867;28;20462;-53
2023/04/28 07:06:18;;;;;;;40.00;29.05;;;;;;;9.42;100.00;100876.66;5116066;28;20024;-54
2023/04/28 07:08:44;;;;;;;32.50;28.45;;;;;;;9.44;100.00;100875.91;5115744;28;20040;-53
2023/04/28 07:11:09;;;;;;;34.95;29.13;;;;;;;9.43;100.00;100868.13;5115935;28;20387;-54
2023/04/28 07:13:35;;;;;;;39.75;30.70;;;;;;;9.44;100.00;100875.91;5115924;28;20387;-53
2023/04/28 07:16:00;;;;;;;45.63;36.08;;;;;;;9.49;100.00;100876.03;5115445;28;20028;-53
2023/04/28 07:18:26;;;;;;;44.70;33.55;;;;;;;9.58;100.00;100873.81;5115764;28;20459;-53
2023/04/28 07:20:51;;;;;;;39.03;30.40;;;;;;;9.67;100.00;100862.91;5116129;28;20034;-53
2023/04/28 07:23:16;;;;;;;40.67;30.65;;;;;;;9.78;100.00;100863.28;5115218;28;20034;-54
2023/04/28 07:25:42;;;;;;;41.05;32.63;;;;;;;9.92;100.00;100869.78;5115635;28;20024;-53
2023/04/28 07:28:07;;;;;;;38.38;31.05;;;;;;;10.01;100.00;100864.03;5115926;28;20374;-53
2023/04/28 07:30:33;;;;;;;46.25;34.70;;;;;;;10.13;100.00;100864.41;5115180;28;20471;-53
2023/04/28 07:32:59;;;;;;;41.58;29.15;;;;;;;10.10;100.00;100863.47;5115641;28;20092;-53
2023/04/28 07:35:24;;;;;;;38.53;31.05;;;;;;;10.26;100.00;100869.97;5115536;28;20028;-53
2023/04/28 07:37:50;;;;;;;41.83;31.40;;;;;;;10.34;100.00;100873.66;5114999;28;20019;-53
2023/04/28 07:40:15;;;;;;;38.95;29.25;;;;;;;10.39;100.00;100877.28;5115348;28;20024;-54
2023/04/28 07:42:41;;;;;;;38.78;29.45;;;;;;;10.44;100.00;100880.88;5115208;28;20472;-53
2023/04/28 07:45:07;;;;;;;45.40;33.00;;;;;;;10.49;100.00;100876.72;5114985;28;20028;-53
2023/04/28 07:47:32;;;;;;;42.25;30.52;;;;;;;10.49;100.00;100879.31;5115207;28;20036;-53
2023/04/28 07:49:59;;;;;;;39.92;30.65;;;;;;;10.51;100.00;100882.81;5115522;28;20024;-53
2023/04/28 07:52:24;;;;;;;42.03;34.70;;;;;;;10.59;100.00;100882.16;5114276;28;20019;-53
2023/04/28 07:54:50;;;;;;;32.72;27.25;;;;;;;10.60;100.00;100874.50;5115362;28;20080;-53
2023/04/28 07:57:15;;;;;;;39.40;32.15;;;;;;;10.58;100.00;100888.16;5115140;28;20483;-53
2023/04/28 07:59:40;;;;;;;156.68;116.82;;;;;;;10.60;100.00;100883.91;5114703;28;20035;-54
2023/04/28 08:02:06;;;;;;;61.20;48.42;;;;;;;10.63;100.00;100878.88;5115360;28;20417;-54
2023/04/28 08:04:33;;;;;;;48.35;38.30;;;;;;;10.60;100.00;100884.81;5114677;28;20101;-53
2023/04/28 08:06:59;;;;;;;44.88;35.42;;;;;;;10.64;100.00;100886.63;5114546;28;20364;-54
2023/04/28 08:09:25;;;;;;;50.22;41.33;;;;;;;10.63;100.00;100881.44;5114679;28;20519;-54
2023/04/28 08:11:50;;;;;;;51.45;43.30;;;;;;;10.65;100.00;100884.91;5114710;28;20019;-53
2023/04/28 08:14:15;;;;;;;39.75;31.85;;;;;;;10.73;100.00;100877.41;5114511;28;20543;-54
2023/04/28 08:16:41;;;;;;;39.63;31.40;;;;;;;10.74;100.00;100872.28;5115032;28;20065;-54
2023/04/28 08:19:06;;;;;;;39.00;30.58;;;;;;;10.74;100.00;100880.03;5114520;28;20054;-54
2023/04/28 08:21:31;;;;;;;42.05;33.50;;;;;;;10.80;100.00;100880.22;5114371;28;20027;-54
2023/04/28 08:23:57;;;;;;;40.20;31.45;;;;;;;10.82;100.00;100877.69;5114918;28;20043;-53
2023/04/28 08:26:23;;;;;;;40.65;34.38;;;;;;;10.83;100.00;100882.91;5114017;28;20023;-53
2023/04/28 08:28:49;;;;;;;42.92;36.30;;;;;;;10.83;100.00;100880.31;5114355;28;20378;-54
2023/04/28 08:31:14;;;;;;;53.00;44.00;;;;;;;10.79;100.00;100891.34;5114592;28;20471;-52
2023/04/28 08:33:43;;;;;;;41.63;34.00;;;;;;;10.80;100.00;100880.22;5113729;28;20028;-49
2023/04/28 08:36:10;;;;;;;42.55;35.95;;;;;;;10.82;100.00;100886.31;5114472;28;20089;-52
2023/04/28 08:38:36;;;;;;;42.35;35.25;;;;;;;10.81;100.00;100884.53;5114423;28;20107;-53
2023/04/28 08:41:03;;;;;;;49.70;37.70;;;;;;;10.85;100.00;100888.97;5113907;28;20102;-53
2023/04/28 08:43:29;;;;;;;40.50;34.75;;;;;;;10.92;100.00;100889.16;5114330;28;20028;-52
2023/04/28 08:45:54;;;;;;;41.75;35.45;;;;;;;11.00;100.00;100887.66;5114559;28;20352;-53
2023/04/28 08:48:21;;;;;;;43.80;35.13;;;;;;;11.02;100.00;100881.69;5113264;28;20461;-53
2023/04/28 08:50:50;;;;;;;42.97;35.67;;;;;;;11.00;100.00;100878.22;5114313;28;20039;-54
2023/04/28 08:53:23;;;;;;;43.28;35.63;;;;;;;11.05;100.00;100880.91;5113422;28;20027;-53
2023/04/28 08:55:55;;;;;;;43.85;34.72;;;;;;;11.10;100.00;100881.91;5113433;28;20549;-52
2023/04/28 08:58:22;;;;;;;41.28;35.05;;;;;;;11.23;100.00;100887.44;5113846;28;20466;-52
2023/04/28 09:00:48;;;;;;;43.35;35.50;;;;;;;11.29;100.00;100892.75;5114291;28;20020;-52
2023/04/28 09:03:14;;;;;;;45.83;35.15;;;;;;;11.24;100.00;100886.59;5113266;28;20023;-52
2023/04/28 09:05:39;;;;;;;43.50;34.38;;;;;;;11.29;100.00;100885.88;5113286;28;20074;-52
2023/04/28 09:08:05;;;;;;;43.50;33.90;;;;;;;11.26;100.00;100890.06;5113322;28;20475;-52
2023/04/28 09:10:30;;;;;;;46.40;35.13;;;;;;;11.27;100.00;100886.69;5113553;28;20028;-53
2023/04/28 09:12:56;;;;;;;44.03;34.70;;;;;;;11.34;100.00;100884.31;5113978;28;20499;-52
2023/04/28 09:15:30;;;;;;;45.47;35.05;;;;;;;11.41;100.00;100885.34;5112993;28;20360;-52
2023/04/28 09:17:55;;;;;;;43.75;33.80;;;;;;;11.47;100.00;100885.50;5113451;28;20038;-52
2023/04/28 09:20:25;;;;;;;43.60;35.00;;;;;;;11.57;100.00;100875.41;5113303;28;20471;-52
2023/04/28 09:22:52;;;;;;;43.38;35.10;;;;;;;11.66;100.00;100880.84;5113302;28;20050;-52
2023/04/28 09:25:20;;;;;;;41.05;35.65;;;;;;;11.74;100.00;100884.47;5113167;28;20058;-52
2023/04/28 09:27:45;;;;;;;43.53;34.30;;;;;;;11.83;100.00;100876.97;5113732;28;20046;-52
2023/04/28 09:30:11;;;;;;;42.10;34.05;;;;;;;11.89;100.00;100877.94;5112886;28;20055;-52
2023/04/28 09:32:37;;;;;;;43.38;33.55;;;;;;;11.90;100.00;100879.69;5113199;28;20089;-51
2023/04/28 09:35:03;;;;;;;36.00;30.98;;;;;;;11.91;100.00;100886.63;5113642;28;20032;-52
2023/04/28 09:37:30;;;;;;;39.03;32.42;;;;;;;11.89;100.00;100883.13;5112466;28;20027;-52
2023/04/28 09:39:57;;;;;;;39.33;32.13;;;;;;;11.90;100.00;100877.97;5113620;28;20090;-52
2023/04/28 09:42:33;;;;;;;35.60;30.70;;;;;;;11.98;100.00;100879.09;5113236;28;20505;-52
2023/04/28 09:44:59;;;;;;;38.40;31.67;;;;;;;12.07;100.00;100878.44;5113078;28;20031;-52
2023/04/28 09:47:24;;;;;;;42.72;32.97;;;;;;;12.05;100.00;100880.09;5112942;28;20061;-51
2023/04/28 09:49:55;;;;;;;45.10;32.78;;;;;;;12.12;100.00;100887.19;5113495;28;20091;-51
2023/04/28 09:52:21;;;;;;;38.53;32.80;;;;;;;12.05;100.00;100882.69;5112301;28;20023;-52
2023/04/28 09:54:49;;;;;;;41.70;33.67;;;;;;;12.01;100.00;100888.63;5113201;28;20378;-52
2023/04/28 09:57:17;;;;;;;41.40;33.03;;;;;;;12.08;100.00;100884.47;5112784;28;20024;-52
2023/04/28 09:59:46;;;;;;;43.92;34.33;;;;;;;12.14;100.00;100890.66;5113051;28;20382;-48
2023/04/28 10:02:16;;;;;;;39.63;31.55;;;;;;;12.21;100.00;100888.22;5113310;28;20027;-52
2023/04/28 10:04:44;;;;;;;39.80;32.10;;;;;;;12.25;100.00;100885.75;5113641;28;20016;-52
2023/04/28 10:07:12;;;;;;;40.60;33.83;;;;;;;12.24;100.00;100891.75;5117353;28;20023;-49
2023/04/28 10:09:38;;;;;;;41.70;33.13;;;;;;;12.23;100.00;100886.56;5117068;28;20110;-49
2023/04/28 10:12:05;;;;;;;40.15;32.08;;;;;;;12.22;100.00;100883.09;5116761;28;20459;-48
2023/04/28 10:14:31;;;;;;;44.17;35.70;;;;;;;12.28;100.00;100892.72;5116971;28;20028;-52
2023/04/28 10:16:58;;;;;;;43.50;34.22;;;;;;;12.29;100.00;100885.00;5117499;28;20023;-53
2023/04/28 10:19:24;;;;;;;40.65;33.85;;;;;;;12.31;100.00;100888.47;5116256;28;20047;-53
2023/04/28 10:22:05;;;;;;;41.15;33.60;;;;;;;12.37;100.00;100892.03;5117171;28;20475;-52
2023/04/28 10:24:31;;;;;;;41.05;33.92;;;;;;;12.40;100.00;100882.63;5116777;28;20169;-50
2023/04/28 10:27:04;;;;;;;45.67;35.10;;;;;;;12.45;100.00;100881.03;5116324;28;20055;-51
2023/04/28 10:29:31;;;;;;;47.47;36.80;;;;;;;12.47;100.00;100887.13;5116967;28;20111;-52
2023/04/28 10:32:15;;;;;;;;;;;;;;;12.58;100.00;100886.47;5117581;28;20076;-51
2023/04/28 10:34:41;;;;;;;42.75;35.38;;;;;;;12.53;100.00;100888.94;5116621;28;19965;-50
2023/04/28 10:37:06;;;;;;;45.97;36.20;;;;;;;12.56;100.00;100877.81;5116833;28;20028;-52
2023/04/28 10:39:32;;;;;;;51.80;40.60;;;;;;;12.60;100.00;100879.63;5115855;28;21011;-52
2023/04/28 10:41:57;;;;;;;48.13;38.38;;;;;;;12.60;100.00;100879.63;5116820;28;20102;-53
2023/04/28 10:44:28;;;;;;;49.80;40.17;;;;;;;12.78;100.00;100876.53;5116617;28;20024;-51
2023/04/28 10:47:08;;;;;;;55.55;46.28;;;;;;;12.80;100.00;100880.91;5116321;28;20028;-53
2023/04/28 10:49:56;;;;;;;60.17;45.13;;;;;;;12.99;100.00;100877.00;5116204;28;20482;-51
2023/04/28 10:52:37;;;;;;;61.53;48.55;;;;;;;13.25;100.00;100875.78;5116454;28;20035;-51
2023/04/28 10:55:35;;;;;;;64.30;49.28;;;;;;;13.21;100.00;100873.94;5115925;28;20054;-49
2023/04/28 10:58:15;;;;;;;62.33;51.05;;;;;;;13.34;100.00;100868.19;5116507;28;20042;-50
2023/04/28 11:00:42;;;;;;;64.75;50.28;;;;;;;13.27;100.00;100879.25;5115991;28;20049;-53
2023/04/28 11:03:07;;;;;;;65.20;52.95;;;;;;;13.30;100.00;100875.00;5116363;28;20115;-51